sensor_id;sensor_type;location;lat;lon;timestamp;temperature;humidity
18287;DHT22;9269;50.838;12.094;2023-07-24T00:01:56;25.20;23.90
18287;DHT22;9269;50.838;12.094;2023-07-24T00:04:25;25.20;24.20
18287;DHT22;9269;50.838;12.094;2023-07-24T00:06:55;25.20;23.90
18287;DHT22;9269;50.838;12.094;2023-07-24T00:09:25;25.10;24.40
18287;DHT22;9269;50.838;12.094;2023-07-24T00:11:55;25.20;24.10
18287;DHT22;9269;50.838;12.094;2023-07-24T00:14:27;25.10;24.00
18287;DHT22;9269;50.838;12.094;2023-07-24T00:16:56;25.00;24.20
18287;DHT22;9269;50.838;12.094;2023-07-24T00:19:27;25.00;24.30
18287;DHT22;9269;50.838;12.094;2023-07-24T00:21:55;25.10;24.30
18287;DHT22;9269;50.838;12.094;2023-07-24T00:24:28;25.00;24.50
18287;DHT22;9269;50.838;12.094;2023-07-24T00:26:59;25.10;24.70
18287;DHT22;9269;50.838;12.094;2023-07-24T00:29:29;25.00;24.30
18287;DHT22;9269;50.838;12.094;2023-07-24T00:31:59;25.00;24.60
18287;DHT22;9269;50.838;12.094;2023-07-24T00:34:28;25.00;24.70
18287;DHT22;9269;50.838;12.094;2023-07-24T00:36:58;24.90;24.80
18287;DHT22;9269;50.838;12.094;2023-07-24T00:39:28;24.90;25.00
18287;DHT22;9269;50.838;12.094;2023-07-24T00:41:56;25.00;24.80
18287;DHT22;9269;50.838;12.094;2023-07-24T00:44:25;24.90;24.70
18287;DHT22;9269;50.838;12.094;2023-07-24T00:46:54;24.90;24.90
18287;DHT22;9269;50.838;12.094;2023-07-24T00:49:23;24.80;25.20
18287;DHT22;9269;50.838;12.094;2023-07-24T00:51:53;24.80;25.20
18287;DHT22;9269;50.838;12.094;2023-07-24T00:54:22;24.80;25.00
18287;DHT22;9269;50.838;12.094;2023-07-24T00:56:54;24.80;25.20
18287;DHT22;9269;50.838;12.094;2023-07-24T00:59:23;24.80;25.20
18287;DHT22;9269;50.838;12.094;2023-07-24T01:01:52;24.70;25.30
18287;DHT22;9269;50.838;12.094;2023-07-24T01:04:22;24.70;25.50
18287;DHT22;9269;50.838;12.094;2023-07-24T01:06:50;24.80;25.60
18287;DHT22;9269;50.838;12.094;2023-07-24T01:09:20;24.70;25.50
18287;DHT22;9269;50.838;12.094;2023-07-24T01:11:57;24.70;25.20
18287;DHT22;9269;50.838;12.094;2023-07-24T01:14:32;24.70;25.20
18287;DHT22;9269;50.838;12.094;2023-07-24T01:17:07;24.60;25.10
18287;DHT22;9269;50.838;12.094;2023-07-24T01:19:40;24.50;25.20
18287;DHT22;9269;50.838;12.094;2023-07-24T01:22:14;24.60;25.60
18287;DHT22;9269;50.838;12.094;2023-07-24T01:25:00;24.70;25.90
18287;DHT22;9269;50.838;12.094;2023-07-24T01:27:34;24.60;25.80
18287;DHT22;9269;50.838;12.094;2023-07-24T01:30:03;24.60;25.80
18287;DHT22;9269;50.838;12.094;2023-07-24T01:32:32;24.50;25.80
18287;DHT22;9269;50.838;12.094;2023-07-24T01:35:01;24.60;25.60
18287;DHT22;9269;50.838;12.094;2023-07-24T01:37:32;24.50;26.20
18287;DHT22;9269;50.838;12.094;2023-07-24T01:40:06;24.50;25.60
18287;DHT22;9269;50.838;12.094;2023-07-24T01:42:39;24.50;25.70
18287;DHT22;9269;50.838;12.094;2023-07-24T01:45:09;24.50;25.80
18287;DHT22;9269;50.838;12.094;2023-07-24T01:47:39;24.50;26.00
18287;DHT22;9269;50.838;12.094;2023-07-24T01:50:10;24.50;26.00
18287;DHT22;9269;50.838;12.094;2023-07-24T01:52:38;24.50;25.70
18287;DHT22;9269;50.838;12.094;2023-07-24T01:55:09;24.50;25.60
18287;DHT22;9269;50.838;12.094;2023-07-24T01:57:41;24.40;25.50
18287;DHT22;9269;50.838;12.094;2023-07-24T02:00:13;24.50;25.60
18287;DHT22;9269;50.838;12.094;2023-07-24T02:02:42;24.40;25.50
18287;DHT22;9269;50.838;12.094;2023-07-24T02:05:11;24.40;25.50
18287;DHT22;9269;50.838;12.094;2023-07-24T02:07:40;24.40;25.70
18287;DHT22;9269;50.838;12.094;2023-07-24T02:10:09;24.40;26.00
18287;DHT22;9269;50.838;12.094;2023-07-24T02:12:41;24.40;25.80
18287;DHT22;9269;50.838;12.094;2023-07-24T02:15:10;24.40;25.60
18287;DHT22;9269;50.838;12.094;2023-07-24T02:17:40;24.40;25.30
18287;DHT22;9269;50.838;12.094;2023-07-24T02:20:11;24.40;25.50
18287;DHT22;9269;50.838;12.094;2023-07-24T02:22:43;24.30;25.80
18287;DHT22;9269;50.838;12.094;2023-07-24T02:25:12;24.40;25.50
18287;DHT22;9269;50.838;12.094;2023-07-24T02:27:46;24.30;25.60
18287;DHT22;9269;50.838;12.094;2023-07-24T02:30:29;24.30;25.90
18287;DHT22;9269;50.838;12.094;2023-07-24T02:33:07;24.40;25.30
18287;DHT22;9269;50.838;12.094;2023-07-24T02:35:49;24.40;25.40
18287;DHT22;9269;50.838;12.094;2023-07-24T02:38:20;24.40;24.90
18287;DHT22;9269;50.838;12.094;2023-07-24T02:41:06;24.40;25.30
18287;DHT22;9269;50.838;12.094;2023-07-24T02:43:43;24.30;25.00
18287;DHT22;9269;50.838;12.094;2023-07-24T02:46:12;24.40;25.70
18287;DHT22;9269;50.838;12.094;2023-07-24T02:49:04;24.30;25.50
18287;DHT22;9269;50.838;12.094;2023-07-24T02:51:33;24.40;25.20
18287;DHT22;9269;50.838;12.094;2023-07-24T02:54:06;24.30;25.30
18287;DHT22;9269;50.838;12.094;2023-07-24T02:56:35;24.30;25.40
18287;DHT22;9269;50.838;12.094;2023-07-24T02:59:07;24.30;25.20
18287;DHT22;9269;50.838;12.094;2023-07-24T03:01:37;24.30;25.20
18287;DHT22;9269;50.838;12.094;2023-07-24T03:04:07;24.30;25.30
18287;DHT22;9269;50.838;12.094;2023-07-24T03:06:39;24.30;25.40
18287;DHT22;9269;50.838;12.094;2023-07-24T03:09:08;24.40;25.50
18287;DHT22;9269;50.838;12.094;2023-07-24T03:11:37;24.30;25.60
18287;DHT22;9269;50.838;12.094;2023-07-24T03:14:05;24.30;25.30
18287;DHT22;9269;50.838;12.094;2023-07-24T03:16:38;24.20;25.20
18287;DHT22;9269;50.838;12.094;2023-07-24T03:19:06;24.30;25.30
18287;DHT22;9269;50.838;12.094;2023-07-24T03:21:35;24.30;25.60
18287;DHT22;9269;50.838;12.094;2023-07-24T03:24:04;24.20;25.60
18287;DHT22;9269;50.838;12.094;2023-07-24T03:26:34;24.30;25.40
18287;DHT22;9269;50.838;12.094;2023-07-24T03:29:19;24.30;25.50
18287;DHT22;9269;50.838;12.094;2023-07-24T03:31:58;24.20;25.40
18287;DHT22;9269;50.838;12.094;2023-07-24T03:34:39;24.20;25.30
18287;DHT22;9269;50.838;12.094;2023-07-24T03:37:34;24.20;26.10
18287;DHT22;9269;50.838;12.094;2023-07-24T03:40:42;24.10;25.50
18287;DHT22;9269;50.838;12.094;2023-07-24T03:43:18;24.10;25.70
18287;DHT22;9269;50.838;12.094;2023-07-24T03:46:42;24.20;25.50
18287;DHT22;9269;50.838;12.094;2023-07-24T03:50:10;24.10;25.40
18287;DHT22;9269;50.838;12.094;2023-07-24T03:52:52;24.10;25.60
18287;DHT22;9269;50.838;12.094;2023-07-24T03:55:24;24.10;25.70
18287;DHT22;9269;50.838;12.094;2023-07-24T03:57:56;24.10;26.10
18287;DHT22;9269;50.838;12.094;2023-07-24T04:00:32;24.10;25.50
18287;DHT22;9269;50.838;12.094;2023-07-24T04:03:09;24.10;26.00
18287;DHT22;9269;50.838;12.094;2023-07-24T04:06:05;24.10;25.70
18287;DHT22;9269;50.838;12.094;2023-07-24T04:08:53;24.10;25.50
18287;DHT22;9269;50.838;12.094;2023-07-24T04:11:24;24.10;25.70
18287;DHT22;9269;50.838;12.094;2023-07-24T04:13:56;24.10;25.70
18287;DHT22;9269;50.838;12.094;2023-07-24T04:16:27;24.10;26.10
18287;DHT22;9269;50.838;12.094;2023-07-24T04:18:58;24.20;26.00
18287;DHT22;9269;50.838;12.094;2023-07-24T04:21:31;24.20;25.60
18287;DHT22;9269;50.838;12.094;2023-07-24T04:24:01;24.20;25.90
18287;DHT22;9269;50.838;12.094;2023-07-24T04:26:39;24.10;25.70
18287;DHT22;9269;50.838;12.094;2023-07-24T04:29:14;24.20;25.70
18287;DHT22;9269;50.838;12.094;2023-07-24T04:31:46;24.20;25.50
18287;DHT22;9269;50.838;12.094;2023-07-24T04:34:16;24.20;25.70
18287;DHT22;9269;50.838;12.094;2023-07-24T04:36:51;24.20;25.80
18287;DHT22;9269;50.838;12.094;2023-07-24T04:40:02;24.20;25.90
18287;DHT22;9269;50.838;12.094;2023-07-24T04:42:33;24.20;26.00
18287;DHT22;9269;50.838;12.094;2023-07-24T04:45:22;24.30;26.10
18287;DHT22;9269;50.838;12.094;2023-07-24T04:47:54;24.20;25.70
18287;DHT22;9269;50.838;12.094;2023-07-24T04:50:29;24.20;26.00
18287;DHT22;9269;50.838;12.094;2023-07-24T04:53:02;24.20;25.70
18287;DHT22;9269;50.838;12.094;2023-07-24T04:55:35;24.20;25.80
18287;DHT22;9269;50.838;12.094;2023-07-24T04:58:10;24.30;25.90
18287;DHT22;9269;50.838;12.094;2023-07-24T05:00:44;24.30;25.90
18287;DHT22;9269;50.838;12.094;2023-07-24T05:03:13;24.30;25.80
18287;DHT22;9269;50.838;12.094;2023-07-24T05:05:54;24.30;25.60
18287;DHT22;9269;50.838;12.094;2023-07-24T05:08:30;24.30;25.90
18287;DHT22;9269;50.838;12.094;2023-07-24T05:11:02;24.30;25.90
18287;DHT22;9269;50.838;12.094;2023-07-24T05:13:41;24.30;25.90
18287;DHT22;9269;50.838;12.094;2023-07-24T05:16:15;24.50;25.70
18287;DHT22;9269;50.838;12.094;2023-07-24T05:18:57;24.60;25.60
18287;DHT22;9269;50.838;12.094;2023-07-24T05:21:40;24.60;26.20
18287;DHT22;9269;50.838;12.094;2023-07-24T05:24:30;24.80;25.70
18287;DHT22;9269;50.838;12.094;2023-07-24T05:27:07;24.90;25.40
18287;DHT22;9269;50.838;12.094;2023-07-24T05:29:53;24.90;25.60
18287;DHT22;9269;50.838;12.094;2023-07-24T05:32:22;24.90;25.40
18287;DHT22;9269;50.838;12.094;2023-07-24T05:35:01;25.10;25.30
18287;DHT22;9269;50.838;12.094;2023-07-24T05:37:35;25.00;25.60
18287;DHT22;9269;50.838;12.094;2023-07-24T05:40:09;25.10;25.70
18287;DHT22;9269;50.838;12.094;2023-07-24T05:42:42;25.10;25.30
18287;DHT22;9269;50.838;12.094;2023-07-24T05:45:14;25.10;25.80
18287;DHT22;9269;50.838;12.094;2023-07-24T05:47:54;25.10;25.80
18287;DHT22;9269;50.838;12.094;2023-07-24T05:50:27;25.10;25.60
18287;DHT22;9269;50.838;12.094;2023-07-24T05:53:11;25.10;25.70
18287;DHT22;9269;50.838;12.094;2023-07-24T05:55:47;25.20;25.70
18287;DHT22;9269;50.838;12.094;2023-07-24T05:58:27;25.20;25.90
18287;DHT22;9269;50.838;12.094;2023-07-24T06:01:05;25.20;25.60
18287;DHT22;9269;50.838;12.094;2023-07-24T06:03:38;25.20;26.10
18287;DHT22;9269;50.838;12.094;2023-07-24T06:06:10;25.30;25.60
18287;DHT22;9269;50.838;12.094;2023-07-24T06:08:39;25.30;26.10
18287;DHT22;9269;50.838;12.094;2023-07-24T06:11:13;25.30;26.00
18287;DHT22;9269;50.838;12.094;2023-07-24T06:13:43;25.40;25.90
18287;DHT22;9269;50.838;12.094;2023-07-24T06:16:15;25.40;25.80
18287;DHT22;9269;50.838;12.094;2023-07-24T06:18:43;25.50;25.80
18287;DHT22;9269;50.838;12.094;2023-07-24T06:21:12;25.50;26.00
18287;DHT22;9269;50.838;12.094;2023-07-24T06:23:41;25.60;26.00
18287;DHT22;9269;50.838;12.094;2023-07-24T06:26:10;25.60;26.00
18287;DHT22;9269;50.838;12.094;2023-07-24T06:28:41;25.70;25.80
18287;DHT22;9269;50.838;12.094;2023-07-24T06:31:11;25.70;25.80
18287;DHT22;9269;50.838;12.094;2023-07-24T06:33:40;25.70;25.70
18287;DHT22;9269;50.838;12.094;2023-07-24T06:36:09;25.80;25.80
18287;DHT22;9269;50.838;12.094;2023-07-24T06:38:38;25.90;25.40
18287;DHT22;9269;50.838;12.094;2023-07-24T06:41:07;25.90;25.40
18287;DHT22;9269;50.838;12.094;2023-07-24T06:43:35;26.00;25.40
18287;DHT22;9269;50.838;12.094;2023-07-24T06:46:12;26.10;26.10
18287;DHT22;9269;50.838;12.094;2023-07-24T06:48:41;26.20;25.90
18287;DHT22;9269;50.838;12.094;2023-07-24T06:51:12;26.30;25.30
18287;DHT22;9269;50.838;12.094;2023-07-24T06:53:42;26.30;25.90
18287;DHT22;9269;50.838;12.094;2023-07-24T06:56:13;26.40;25.30
18287;DHT22;9269;50.838;12.094;2023-07-24T06:58:43;26.40;25.30
18287;DHT22;9269;50.838;12.094;2023-07-24T07:01:14;26.40;25.20
18287;DHT22;9269;50.838;12.094;2023-07-24T07:03:43;26.60;24.90
18287;DHT22;9269;50.838;12.094;2023-07-24T07:06:15;26.60;25.10
18287;DHT22;9269;50.838;12.094;2023-07-24T07:08:49;26.80;25.10
18287;DHT22;9269;50.838;12.094;2023-07-24T07:11:17;26.70;25.00
18287;DHT22;9269;50.838;12.094;2023-07-24T07:13:46;26.90;24.60
18287;DHT22;9269;50.838;12.094;2023-07-24T07:16:34;26.90;24.70
18287;DHT22;9269;50.838;12.094;2023-07-24T07:19:10;26.80;25.00
18287;DHT22;9269;50.838;12.094;2023-07-24T07:21:54;27.00;24.80
18287;DHT22;9269;50.838;12.094;2023-07-24T07:24:30;27.10;24.70
18287;DHT22;9269;50.838;12.094;2023-07-24T07:27:30;27.30;24.60
18287;DHT22;9269;50.838;12.094;2023-07-24T07:30:09;27.40;24.40
18287;DHT22;9269;50.838;12.094;2023-07-24T07:33:09;27.50;24.60
18287;DHT22;9269;50.838;12.094;2023-07-24T07:36:15;27.60;24.50
18287;DHT22;9269;50.838;12.094;2023-07-24T07:38:57;27.80;24.20
18287;DHT22;9269;50.838;12.094;2023-07-24T07:41:48;27.80;24.00
18287;DHT22;9269;50.838;12.094;2023-07-24T07:45:00;27.90;24.20
18287;DHT22;9269;50.838;12.094;2023-07-24T07:47:37;28.10;24.00
18287;DHT22;9269;50.838;12.094;2023-07-24T07:50:24;28.10;23.80
18287;DHT22;9269;50.838;12.094;2023-07-24T07:53:24;28.00;23.90
18287;DHT22;9269;50.838;12.094;2023-07-24T07:56:14;28.10;24.10
18287;DHT22;9269;50.838;12.094;2023-07-24T07:59:37;28.20;23.70
18287;DHT22;9269;50.838;12.094;2023-07-24T08:02:15;28.20;23.80
18287;DHT22;9269;50.838;12.094;2023-07-24T08:04:47;28.20;24.30
18287;DHT22;9269;50.838;12.094;2023-07-24T08:07:25;28.30;24.00
18287;DHT22;9269;50.838;12.094;2023-07-24T08:09:59;28.30;24.00
18287;DHT22;9269;50.838;12.094;2023-07-24T08:12:48;28.40;24.70
18287;DHT22;9269;50.838;12.094;2023-07-24T08:15:19;28.50;24.10
18287;DHT22;9269;50.838;12.094;2023-07-24T08:18:00;28.40;23.70
18287;DHT22;9269;50.838;12.094;2023-07-24T08:20:47;28.50;24.10
18287;DHT22;9269;50.838;12.094;2023-07-24T08:23:44;28.60;24.10
18287;DHT22;9269;50.838;12.094;2023-07-24T08:26:25;28.50;23.30
18287;DHT22;9269;50.838;12.094;2023-07-24T08:29:25;28.60;23.40
18287;DHT22;9269;50.838;12.094;2023-07-24T08:31:54;28.70;23.40
18287;DHT22;9269;50.838;12.094;2023-07-24T08:34:30;28.80;23.10
18287;DHT22;9269;50.838;12.094;2023-07-24T08:37:05;28.70;22.60
18287;DHT22;9269;50.838;12.094;2023-07-24T08:39:50;28.90;23.00
18287;DHT22;9269;50.838;12.094;2023-07-24T08:42:23;29.00;22.70
18287;DHT22;9269;50.838;12.094;2023-07-24T08:45:04;29.10;22.50
18287;DHT22;9269;50.838;12.094;2023-07-24T08:47:42;29.10;22.10
18287;DHT22;9269;50.838;12.094;2023-07-24T08:50:36;29.10;22.70
18287;DHT22;9269;50.838;12.094;2023-07-24T08:53:18;29.10;22.10
18287;DHT22;9269;50.838;12.094;2023-07-24T08:55:57;29.20;22.10
18287;DHT22;9269;50.838;12.094;2023-07-24T08:58:39;29.30;21.90
18287;DHT22;9269;50.838;12.094;2023-07-24T09:01:13;29.40;22.20
18287;DHT22;9269;50.838;12.094;2023-07-24T09:03:43;29.40;21.90
18287;DHT22;9269;50.838;12.094;2023-07-24T09:06:28;29.40;22.00
18287;DHT22;9269;50.838;12.094;2023-07-24T09:09:52;29.30;22.30
18287;DHT22;9269;50.838;12.094;2023-07-24T09:12:28;29.20;22.20
18287;DHT22;9269;50.838;12.094;2023-07-24T09:15:01;28.90;24.10
18287;DHT22;9269;50.838;12.094;2023-07-24T09:17:30;28.50;25.10
18287;DHT22;9269;50.838;12.094;2023-07-24T09:19:59;28.30;26.00
18287;DHT22;9269;50.838;12.094;2023-07-24T09:22:30;28.20;26.30
18287;DHT22;9269;50.838;12.094;2023-07-24T09:25:01;28.10;26.10
18287;DHT22;9269;50.838;12.094;2023-07-24T09:27:32;28.00;26.50
18287;DHT22;9269;50.838;12.094;2023-07-24T09:30:02;27.90;26.50
18287;DHT22;9269;50.838;12.094;2023-07-24T09:32:51;27.80;26.60
18287;DHT22;9269;50.838;12.094;2023-07-24T09:35:22;28.00;26.30
18287;DHT22;9269;50.838;12.094;2023-07-24T09:38:02;28.00;26.50
18287;DHT22;9269;50.838;12.094;2023-07-24T09:40:39;28.10;26.60
18287;DHT22;9269;50.838;12.094;2023-07-24T09:43:19;28.20;26.70
18287;DHT22;9269;50.838;12.094;2023-07-24T09:45:54;28.20;26.20
18287;DHT22;9269;50.838;12.094;2023-07-24T09:48:25;28.10;26.20
18287;DHT22;9269;50.838;12.094;2023-07-24T09:50:58;28.20;26.40
18287;DHT22;9269;50.838;12.094;2023-07-24T09:53:32;28.20;26.10
18287;DHT22;9269;50.838;12.094;2023-07-24T09:56:03;28.30;26.20
18287;DHT22;9269;50.838;12.094;2023-07-24T09:58:38;28.50;25.90
18287;DHT22;9269;50.838;12.094;2023-07-24T10:01:12;28.70;25.80
18287;DHT22;9269;50.838;12.094;2023-07-24T10:03:46;28.90;25.60
18287;DHT22;9269;50.838;12.094;2023-07-24T10:06:16;29.10;25.50
18287;DHT22;9269;50.838;12.094;2023-07-24T10:08:46;29.40;25.10
18287;DHT22;9269;50.838;12.094;2023-07-24T10:11:14;29.70;24.60
18287;DHT22;9269;50.838;12.094;2023-07-24T10:13:45;30.10;24.60
18287;DHT22;9269;50.838;12.094;2023-07-24T10:16:14;30.40;24.20
18287;DHT22;9269;50.838;12.094;2023-07-24T10:18:45;30.80;24.60
18287;DHT22;9269;50.838;12.094;2023-07-24T10:21:17;31.00;24.10
18287;DHT22;9269;50.838;12.094;2023-07-24T10:23:46;31.20;24.00
18287;DHT22;9269;50.838;12.094;2023-07-24T10:26:15;31.20;23.50
18287;DHT22;9269;50.838;12.094;2023-07-24T10:28:50;31.30;23.40
18287;DHT22;9269;50.838;12.094;2023-07-24T10:31:21;31.30;23.30
18287;DHT22;9269;50.838;12.094;2023-07-24T10:33:51;31.30;23.00
18287;DHT22;9269;50.838;12.094;2023-07-24T10:36:22;31.20;23.20
18287;DHT22;9269;50.838;12.094;2023-07-24T10:38:53;31.20;22.90
18287;DHT22;9269;50.838;12.094;2023-07-24T10:41:22;31.30;23.00
18287;DHT22;9269;50.838;12.094;2023-07-24T10:44:06;31.40;23.00
18287;DHT22;9269;50.838;12.094;2023-07-24T10:46:37;31.40;23.00
18287;DHT22;9269;50.838;12.094;2023-07-24T10:49:53;31.30;22.90
18287;DHT22;9269;50.838;12.094;2023-07-24T10:53:15;31.30;23.40
18287;DHT22;9269;50.838;12.094;2023-07-24T10:56:12;31.20;23.30
18287;DHT22;9269;50.838;12.094;2023-07-24T10:59:34;31.20;23.50
18287;DHT22;9269;50.838;12.094;2023-07-24T11:03:51;31.10;23.70
18287;DHT22;9269;50.838;12.094;2023-07-24T11:11:15;31.10;23.60
18287;DHT22;9269;50.838;12.094;2023-07-24T11:15:12;30.90;22.70
18287;DHT22;9269;50.838;12.094;2023-07-24T11:23:28;31.00;21.60
18287;DHT22;9269;50.838;12.094;2023-07-24T11:30:49;30.80;21.80
18287;DHT22;9269;50.838;12.094;2023-07-24T11:42:10;30.60;21.90
18287;DHT22;9269;50.838;12.094;2023-07-24T11:45:49;30.50;22.40
18287;DHT22;9269;50.838;12.094;2023-07-24T11:49:23;30.50;22.50
18287;DHT22;9269;50.838;12.094;2023-07-24T11:53:19;30.60;22.90
18287;DHT22;9269;50.838;12.094;2023-07-24T11:57:54;30.70;23.10
18287;DHT22;9269;50.838;12.094;2023-07-24T12:04:57;31.20;22.80
18287;DHT22;9269;50.838;12.094;2023-07-24T12:07:54;31.30;22.80
18287;DHT22;9269;50.838;12.094;2023-07-24T12:10:41;31.40;22.80
18287;DHT22;9269;50.838;12.094;2023-07-24T12:13:18;31.20;22.80
18287;DHT22;9269;50.838;12.094;2023-07-24T12:16:01;31.10;22.90
18287;DHT22;9269;50.838;12.094;2023-07-24T12:18:44;31.20;23.00
18287;DHT22;9269;50.838;12.094;2023-07-24T12:21:37;31.10;23.00
18287;DHT22;9269;50.838;12.094;2023-07-24T12:24:45;31.10;23.30
18287;DHT22;9269;50.838;12.094;2023-07-24T12:27:50;31.20;22.80
18287;DHT22;9269;50.838;12.094;2023-07-24T12:30:37;31.30;23.20
18287;DHT22;9269;50.838;12.094;2023-07-24T12:33:52;31.20;23.20
18287;DHT22;9269;50.838;12.094;2023-07-24T12:37:00;31.20;23.20
18287;DHT22;9269;50.838;12.094;2023-07-24T12:39:53;31.10;23.50
18287;DHT22;9269;50.838;12.094;2023-07-24T12:42:49;31.00;23.80
18287;DHT22;9269;50.838;12.094;2023-07-24T12:49:17;31.00;23.70
18287;DHT22;9269;50.838;12.094;2023-07-24T12:53:02;30.90;23.70
18287;DHT22;9269;50.838;12.094;2023-07-24T12:56:40;30.80;23.90
18287;DHT22;9269;50.838;12.094;2023-07-24T12:59:51;31.00;24.00
18287;DHT22;9269;50.838;12.094;2023-07-24T13:03:42;31.10;23.60
18287;DHT22;9269;50.838;12.094;2023-07-24T13:07:23;31.20;23.50
18287;DHT22;9269;50.838;12.094;2023-07-24T13:10:25;31.30;23.20
18287;DHT22;9269;50.838;12.094;2023-07-24T13:12:54;31.10;22.50
18287;DHT22;9269;50.838;12.094;2023-07-24T13:15:23;31.10;22.70
18287;DHT22;9269;50.838;12.094;2023-07-24T13:17:52;31.10;22.30
18287;DHT22;9269;50.838;12.094;2023-07-24T13:20:21;31.00;22.50
18287;DHT22;9269;50.838;12.094;2023-07-24T13:22:50;31.00;22.30
18287;DHT22;9269;50.838;12.094;2023-07-24T13:25:22;31.00;22.50
18287;DHT22;9269;50.838;12.094;2023-07-24T13:27:52;30.90;22.00
18287;DHT22;9269;50.838;12.094;2023-07-24T13:30:21;30.90;21.90
18287;DHT22;9269;50.838;12.094;2023-07-24T13:32:50;30.90;21.90
18287;DHT22;9269;50.838;12.094;2023-07-24T13:35:19;30.90;22.10
18287;DHT22;9269;50.838;12.094;2023-07-24T13:37:48;31.00;21.70
18287;DHT22;9269;50.838;12.094;2023-07-24T13:40:18;30.80;21.50
18287;DHT22;9269;50.838;12.094;2023-07-24T13:42:47;30.90;21.60
18287;DHT22;9269;50.838;12.094;2023-07-24T13:45:18;31.00;21.70
18287;DHT22;9269;50.838;12.094;2023-07-24T13:47:47;31.00;21.80
18287;DHT22;9269;50.838;12.094;2023-07-24T13:50:16;31.00;21.90
18287;DHT22;9269;50.838;12.094;2023-07-24T13:52:47;31.00;21.70
18287;DHT22;9269;50.838;12.094;2023-07-24T13:55:22;31.10;21.80
18287;DHT22;9269;50.838;12.094;2023-07-24T13:57:51;31.10;21.90
18287;DHT22;9269;50.838;12.094;2023-07-24T14:00:24;31.10;22.10
18287;DHT22;9269;50.838;12.094;2023-07-24T14:02:54;31.00;22.20
18287;DHT22;9269;50.838;12.094;2023-07-24T14:05:22;30.90;22.10
18287;DHT22;9269;50.838;12.094;2023-07-24T14:07:51;30.90;22.00
18287;DHT22;9269;50.838;12.094;2023-07-24T14:10:20;30.90;21.90
18287;DHT22;9269;50.838;12.094;2023-07-24T14:12:50;31.00;21.90
18287;DHT22;9269;50.838;12.094;2023-07-24T14:15:19;30.90;22.00
18287;DHT22;9269;50.838;12.094;2023-07-24T14:17:49;30.90;22.10
18287;DHT22;9269;50.838;12.094;2023-07-24T14:20:19;31.00;21.90
18287;DHT22;9269;50.838;12.094;2023-07-24T14:22:50;30.90;21.80
18287;DHT22;9269;50.838;12.094;2023-07-24T14:25:19;30.90;21.80
18287;DHT22;9269;50.838;12.094;2023-07-24T14:27:49;30.90;21.90
18287;DHT22;9269;50.838;12.094;2023-07-24T14:30:21;31.10;21.80
18287;DHT22;9269;50.838;12.094;2023-07-24T14:32:51;31.20;21.60
18287;DHT22;9269;50.838;12.094;2023-07-24T14:35:21;31.20;22.00
18287;DHT22;9269;50.838;12.094;2023-07-24T14:37:50;31.50;21.50
18287;DHT22;9269;50.838;12.094;2023-07-24T14:40:21;31.50;21.20
18287;DHT22;9269;50.838;12.094;2023-07-24T14:42:51;31.60;21.00
18287;DHT22;9269;50.838;12.094;2023-07-24T14:45:33;31.60;20.70
18287;DHT22;9269;50.838;12.094;2023-07-24T14:48:10;31.60;20.90
18287;DHT22;9269;50.838;12.094;2023-07-24T14:50:41;31.80;20.30
18287;DHT22;9269;50.838;12.094;2023-07-24T14:53:10;31.70;20.20
18287;DHT22;9269;50.838;12.094;2023-07-24T14:55:38;31.70;20.10
18287;DHT22;9269;50.838;12.094;2023-07-24T14:58:08;32.00;19.60
18287;DHT22;9269;50.838;12.094;2023-07-24T15:00:36;32.10;19.80
18287;DHT22;9269;50.838;12.094;2023-07-24T15:03:06;32.20;18.90
18287;DHT22;9269;50.838;12.094;2023-07-24T15:05:36;32.20;18.80
18287;DHT22;9269;50.838;12.094;2023-07-24T15:08:06;32.20;18.40
18287;DHT22;9269;50.838;12.094;2023-07-24T15:10:34;32.10;18.20
18287;DHT22;9269;50.838;12.094;2023-07-24T15:13:03;32.20;18.50
18287;DHT22;9269;50.838;12.094;2023-07-24T15:15:32;32.10;18.20
18287;DHT22;9269;50.838;12.094;2023-07-24T15:18:01;32.10;17.80
18287;DHT22;9269;50.838;12.094;2023-07-24T15:20:32;32.20;17.90
18287;DHT22;9269;50.838;12.094;2023-07-24T15:23:02;32.30;17.90
18287;DHT22;9269;50.838;12.094;2023-07-24T15:25:37;32.30;17.50
18287;DHT22;9269;50.838;12.094;2023-07-24T15:28:06;32.30;17.60
18287;DHT22;9269;50.838;12.094;2023-07-24T15:30:34;32.30;17.40
18287;DHT22;9269;50.838;12.094;2023-07-24T15:33:03;32.40;17.10
18287;DHT22;9269;50.838;12.094;2023-07-24T15:35:32;32.30;16.90
18287;DHT22;9269;50.838;12.094;2023-07-24T15:38:10;32.30;16.60
18287;DHT22;9269;50.838;12.094;2023-07-24T15:40:48;32.30;16.70
18287;DHT22;9269;50.838;12.094;2023-07-24T15:43:16;32.20;16.50
18287;DHT22;9269;50.838;12.094;2023-07-24T15:45:46;32.20;16.40
18287;DHT22;9269;50.838;12.094;2023-07-24T15:48:31;32.20;16.50
18287;DHT22;9269;50.838;12.094;2023-07-24T15:51:01;32.20;16.00
18287;DHT22;9269;50.838;12.094;2023-07-24T15:53:31;32.30;15.50
18287;DHT22;9269;50.838;12.094;2023-07-24T15:56:00;32.30;16.00
18287;DHT22;9269;50.838;12.094;2023-07-24T15:58:29;32.20;15.50
18287;DHT22;9269;50.838;12.094;2023-07-24T16:00:57;32.20;15.60
18287;DHT22;9269;50.838;12.094;2023-07-24T16:03:26;32.20;15.90
18287;DHT22;9269;50.838;12.094;2023-07-24T16:05:59;32.00;15.30
18287;DHT22;9269;50.838;12.094;2023-07-24T16:08:28;32.20;15.60
18287;DHT22;9269;50.838;12.094;2023-07-24T16:11:00;32.10;15.80
18287;DHT22;9269;50.838;12.094;2023-07-24T16:13:30;32.10;15.50
18287;DHT22;9269;50.838;12.094;2023-07-24T16:16:01;32.10;15.60
18287;DHT22;9269;50.838;12.094;2023-07-24T16:18:30;32.10;15.50
18287;DHT22;9269;50.838;12.094;2023-07-24T16:21:00;32.00;15.90
18287;DHT22;9269;50.838;12.094;2023-07-24T16:23:29;32.10;15.60
18287;DHT22;9269;50.838;12.094;2023-07-24T16:26:00;31.80;16.10
18287;DHT22;9269;50.838;12.094;2023-07-24T16:28:29;31.90;15.70
18287;DHT22;9269;50.838;12.094;2023-07-24T16:30:58;31.70;16.40
18287;DHT22;9269;50.838;12.094;2023-07-24T16:33:27;31.70;16.70
18287;DHT22;9269;50.838;12.094;2023-07-24T16:35:57;31.70;16.80
18287;DHT22;9269;50.838;12.094;2023-07-24T16:38:27;31.60;16.90
18287;DHT22;9269;50.838;12.094;2023-07-24T16:40:56;31.60;17.20
18287;DHT22;9269;50.838;12.094;2023-07-24T16:43:27;31.50;17.50
18287;DHT22;9269;50.838;12.094;2023-07-24T16:46:00;31.40;17.20
18287;DHT22;9269;50.838;12.094;2023-07-24T16:48:49;31.40;17.50
18287;DHT22;9269;50.838;12.094;2023-07-24T16:51:19;31.10;17.50
18287;DHT22;9269;50.838;12.094;2023-07-24T16:53:49;31.00;17.70
18287;DHT22;9269;50.838;12.094;2023-07-24T16:56:18;30.90;17.70
18287;DHT22;9269;50.838;12.094;2023-07-24T16:59:08;30.80;17.60
18287;DHT22;9269;50.838;12.094;2023-07-24T17:01:43;30.90;17.80
18287;DHT22;9269;50.838;12.094;2023-07-24T17:04:13;30.80;17.70
18287;DHT22;9269;50.838;12.094;2023-07-24T17:07:09;30.80;17.50
18287;DHT22;9269;50.838;12.094;2023-07-24T17:09:40;30.70;17.30